createdAt,value
2023-03-28T00:01:35.567Z,100724.06
2023-03-28T00:04:04.808Z,100718.66
2023-03-28T00:06:32.994Z,100725.50
2023-03-28T00:09:00.687Z,100729.94
2023-03-28T00:11:29.719Z,100729.72
2023-03-28T00:14:00.481Z,100730.22
2023-03-28T00:16:32.130Z,100736.34
2023-03-28T00:19:01.283Z,100738.88
2023-03-28T00:21:31.272Z,100739.72
2023-03-28T00:24:02.385Z,100744.63
2023-03-28T00:26:34.387Z,100739.78
2023-03-28T00:29:03.809Z,100748.13
2023-03-28T00:31:32.413Z,100751.50
2023-03-28T00:34:00.125Z,100744.63
2023-03-28T00:36:29.549Z,100746.38
2023-03-28T00:38:58.290Z,100743.50
2023-03-28T00:41:31.231Z,100742.91
2023-03-28T00:44:01.168Z,100746.28
2023-03-28T00:46:33.447Z,100753.25
2023-03-28T00:49:05.702Z,100757.97
2023-03-28T00:51:37.019Z,100757.53
2023-03-28T00:54:09.119Z,100757.03
2023-03-28T00:56:39.122Z,100753.84
2023-03-28T00:59:10.931Z,100752.56
2023-03-28T01:01:38.781Z,100755.34
2023-03-28T01:04:10.259Z,100757.88
2023-03-28T01:06:43.023Z,100751.25
2023-03-28T01:09:11.121Z,100754.59
2023-03-28T01:11:41.887Z,100756.63
2023-03-28T01:14:13.341Z,100752.06
2023-03-28T01:16:42.979Z,100757.13
2023-03-28T01:19:16.416Z,100764.69
2023-03-28T01:22:25.268Z,100762.06
2023-03-28T01:25:19.760Z,100765.38
2023-03-28T01:28:02.038Z,100761.91
2023-03-28T01:31:04.744Z,100760.63
2023-03-28T01:34:11.322Z,100772.22
2023-03-28T01:37:05.597Z,100770.22
2023-03-28T01:39:52.671Z,100771.25
2023-03-28T01:42:28.196Z,100770.41
2023-03-28T01:45:07.777Z,100772.41
2023-03-28T01:47:39.790Z,100769.38
2023-03-28T01:50:15.076Z,100772.81
2023-03-28T01:52:53.199Z,100774.56
2023-03-28T01:55:25.401Z,100782.44
2023-03-28T01:58:00.072Z,100781.88
2023-03-28T02:00:32.636Z,100778.94
2023-03-28T02:03:06.571Z,100781.34
2023-03-28T02:05:36.145Z,100777.94
2023-03-28T02:08:09.272Z,100772.88
2023-03-28T02:10:40.667Z,100779.28
2023-03-28T02:13:12.141Z,100781.63
2023-03-28T02:15:42.266Z,100764.47
2023-03-28T02:18:16.648Z,100762.78
2023-03-28T02:20:46.859Z,100763.56
2023-03-28T02:23:19.832Z,100766.56
2023-03-28T02:25:48.278Z,100762.84
2023-03-28T02:28:17.244Z,100771.53
2023-03-28T02:30:45.535Z,100763.81
2023-03-28T02:33:35.010Z,100774.13
2023-03-28T02:36:26.418Z,100770.13
2023-03-28T02:39:08.342Z,100768.25
2023-03-28T02:41:47.149Z,100774.78
2023-03-28T02:44:28.533Z,100767.00
2023-03-28T02:47:09.626Z,100765.16
2023-03-28T02:49:50.952Z,100765.31
2023-03-28T02:52:35.221Z,100768.00
2023-03-28T02:55:16.970Z,100767.41
2023-03-28T02:57:50.913Z,100766.88
2023-03-28T03:00:20.770Z,100764.81
2023-03-28T03:02:51.466Z,100757.06
2023-03-28T03:05:20.649Z,100758.69
2023-03-28T03:07:49.648Z,100757.13
2023-03-28T03:10:19.199Z,100763.50
2023-03-28T03:12:47.403Z,100755.06
2023-03-28T03:15:17.211Z,100757.78
2023-03-28T03:17:45.418Z,100758.59
2023-03-28T03:20:13.152Z,100761.81
2023-03-28T03:22:41.513Z,100759.41
2023-03-28T03:25:13.058Z,100760.25
2023-03-28T03:27:43.299Z,100768.19
2023-03-28T03:30:11.858Z,100765.00
2023-03-28T03:32:39.498Z,100766.09
2023-03-28T03:35:07.846Z,100767.31
2023-03-28T03:37:35.500Z,100761.28
2023-03-28T03:40:05.639Z,100770.25
2023-03-28T03:42:33.706Z,100765.53
2023-03-28T03:45:02.904Z,100766.66
2023-03-28T03:47:30.651Z,100763.41
2023-03-28T03:49:58.452Z,100763.94
2023-03-28T03:52:27.134Z,100766.53
2023-03-28T03:54:54.844Z,100774.66
2023-03-28T03:57:22.603Z,100777.81
2023-03-28T03:59:50.382Z,100779.09
2023-03-28T04:02:19.541Z,100782.16
2023-03-28T04:04:47.839Z,100784.69
2023-03-28T04:07:16.158Z,100791.06
2023-03-28T04:09:43.790Z,100789.38
2023-03-28T04:12:12.970Z,100793.13
2023-03-28T04:14:40.541Z,100797.88
2023-03-28T04:17:08.430Z,100794.34
2023-03-28T04:19:40.613Z,100798.41
2023-03-28T04:22:12.912Z,100798.47
2023-03-28T04:24:41.672Z,100793.22
2023-03-28T04:27:09.755Z,100805.00
2023-03-28T04:29:37.849Z,100799.97
2023-03-28T04:32:06.641Z,100790.16
2023-03-28T04:34:37.037Z,100803.31
2023-03-28T04:37:09.125Z,100800.03
2023-03-28T04:39:37.060Z,100807.00
2023-03-28T04:42:06.007Z,100807.28
2023-03-28T04:44:33.751Z,100810.56
2023-03-28T04:47:01.538Z,100802.84
2023-03-28T04:49:29.275Z,100805.00
2023-03-28T04:51:57.053Z,100812.63
2023-03-28T04:54:27.067Z,100816.94
2023-03-28T04:56:55.161Z,100818.31
2023-03-28T04:59:23.109Z,100825.25
2023-03-28T05:01:50.992Z,100823.75
2023-03-28T05:04:19.486Z,100829.31
2023-03-28T05:06:47.570Z,100826.47
2023-03-28T05:09:16.303Z,100829.97
2023-03-28T05:11:46.381Z,100832.66
2023-03-28T05:14:14.326Z,100835.41
2023-03-28T05:16:42.120Z,100838.53
2023-03-28T05:19:10.604Z,100841.75
2023-03-28T05:21:38.374Z,100845.50
2023-03-28T05:24:06.906Z,100842.03
2023-03-28T05:26:34.610Z,100839.50
2023-03-28T05:29:03.943Z,100842.19
2023-03-28T05:31:32.113Z,100849.78
2023-03-28T05:33:59.873Z,100846.88
2023-03-28T05:36:28.863Z,100854.97
2023-03-28T05:38:56.523Z,100846.63
2023-03-28T05:41:24.509Z,100857.34
2023-03-28T05:43:52.178Z,100853.91
2023-03-28T05:46:21.320Z,100867.19
2023-03-28T05:48:49.576Z,100865.56
2023-03-28T05:51:18.037Z,100872.13
2023-03-28T05:53:45.714Z,100872.16
2023-03-28T05:56:13.400Z,100876.19
2023-03-28T05:58:41.595Z,100878.94
2023-03-28T06:01:10.015Z,100874.03
2023-03-28T06:03:40.294Z,100872.91
2023-03-28T06:06:09.017Z,100873.78
2023-03-28T06:08:37.056Z,100863.75
2023-03-28T06:11:05.622Z,100875.50
2023-03-28T06:13:33.300Z,100875.34
2023-03-28T06:16:01.054Z,100866.44
2023-03-28T06:18:28.786Z,100867.03
2023-03-28T06:20:58.388Z,100865.50
2023-03-28T06:23:26.616Z,100863.44
2023-03-28T06:25:54.688Z,100863.63
2023-03-28T06:28:22.469Z,100861.56
2023-03-28T06:30:51.079Z,100859.41
2023-03-28T06:33:18.775Z,100872.69
2023-03-28T06:35:46.535Z,100869.81
2023-03-28T06:38:15.607Z,100870.47
2023-03-28T06:40:43.411Z,100867.56
2023-03-28T06:43:11.135Z,100871.78
2023-03-28T06:45:39.053Z,100868.94
2023-03-28T06:48:07.123Z,100872.41
2023-03-28T06:50:34.900Z,100871.69
2023-03-28T06:53:02.567Z,100874.91
2023-03-28T06:55:31.624Z,100870.28
2023-03-28T06:57:59.220Z,100873.44
2023-03-28T07:00:27.054Z,100886.81
2023-03-28T07:02:54.765Z,100879.88
2023-03-28T07:05:22.801Z,100885.88
2023-03-28T07:07:50.561Z,100877.53
2023-03-28T07:10:18.434Z,100876.75
2023-03-28T07:12:47.676Z,100876.31
2023-03-28T07:15:16.801Z,100883.06
2023-03-28T07:17:46.109Z,100883.53
2023-03-28T07:20:14.016Z,100887.34
2023-03-28T07:22:42.119Z,100884.63
2023-03-28T07:25:10.072Z,100887.81
2023-03-28T07:27:38.058Z,100888.59
2023-03-28T07:30:08.952Z,100896.59
2023-03-28T07:32:47.903Z,100897.59
2023-03-28T07:35:22.161Z,100903.19
2023-03-28T07:37:49.868Z,100910.25
2023-03-28T07:40:17.836Z,100913.63
2023-03-28T07:42:45.533Z,100919.31
2023-03-28T07:45:14.571Z,100922.47
2023-03-28T07:47:42.474Z,100915.19
2023-03-28T07:50:10.729Z,100905.25
2023-03-28T07:52:44.106Z,100910.81
2023-03-28T07:55:11.920Z,100908.47
2023-03-28T07:57:39.515Z,100911.63
2023-03-28T08:00:13.003Z,100911.13
2023-03-28T08:02:44.987Z,100901.25
2023-03-28T08:05:12.985Z,100904.22
2023-03-28T08:07:42.003Z,100902.13
2023-03-28T08:10:10.973Z,100894.84
2023-03-28T08:12:38.652Z,100898.06
2023-03-28T08:15:07.742Z,100898.25
2023-03-28T08:17:35.717Z,100900.59
2023-03-28T08:20:09.930Z,100898.09
2023-03-28T08:22:37.784Z,100901.69
2023-03-28T08:25:09.363Z,100897.50
2023-03-28T08:27:37.012Z,100901.75
2023-03-28T08:30:06.732Z,100899.72
2023-03-28T08:32:34.475Z,100899.41
2023-03-28T08:35:07.007Z,100898.31
2023-03-28T08:37:35.994Z,100905.66
2023-03-28T08:40:07.742Z,100913.19
2023-03-28T08:43:09.740Z,100909.50
2023-03-28T08:45:53.077Z,100915.94
2023-03-28T08:48:27.981Z,100912.31
2023-03-28T08:51:01.504Z,100918.16
2023-03-28T08:53:35.248Z,100913.16
2023-03-28T08:56:06.180Z,100908.09
2023-03-28T08:58:42.501Z,100906.44
2023-03-28T09:01:11.087Z,100913.75
2023-03-28T09:03:38.851Z,100907.84
2023-03-28T09:06:20.695Z,100913.25
2023-03-28T09:09:11.331Z,100911.34
2023-03-28T09:11:50.737Z,100907.97
2023-03-28T09:14:51.810Z,100903.03
2023-03-28T09:17:24.927Z,100901.97
2023-03-28T09:20:12.409Z,100905.50
2023-03-28T09:22:52.738Z,100904.53
2023-03-28T09:25:33.637Z,100900.00
2023-03-28T09:28:10.906Z,100901.19
2023-03-28T09:30:42.202Z,100894.50
2023-03-28T09:33:16.077Z,100894.97
2023-03-28T09:35:44.311Z,100886.16
2023-03-28T09:38:22.027Z,100886.34
2023-03-28T09:40:54.823Z,100877.06
2023-03-28T09:43:28.842Z,100884.09
2023-03-28T09:46:00.593Z,100887.75
2023-03-28T09:48:30.613Z,100884.16
2023-03-28T09:50:59.853Z,100885.09
2023-03-28T09:53:31.786Z,100884.94
2023-03-28T09:56:07.654Z,100891.66
2023-03-28T09:58:49.970Z,100886.13
2023-03-28T10:01:40.777Z,100878.75
2023-03-28T10:04:12.327Z,100880.19
2023-03-28T10:06:41.730Z,100881.16
2023-03-28T10:09:16.231Z,100881.78
2023-03-28T10:11:55.467Z,100878.75
2023-03-28T10:14:31.502Z,100875.78
2023-03-28T10:17:03.465Z,100878.81
2023-03-28T10:19:34.561Z,100875.97
2023-03-28T10:22:07.272Z,100877.38
2023-03-28T10:24:35.930Z,100865.84
2023-03-28T10:27:16.430Z,100865.22
2023-03-28T10:29:44.987Z,100862.88
2023-03-28T10:32:14.048Z,100865.19
2023-03-28T10:34:41.713Z,100854.13
2023-03-28T10:37:27.215Z,100860.38
2023-03-28T10:40:05.148Z,100854.13
2023-03-28T10:42:43.120Z,100858.91
2023-03-28T10:45:23.788Z,100859.09
2023-03-28T10:47:54.726Z,100849.06
2023-03-28T10:50:28.330Z,100852.09
2023-03-28T10:53:10.909Z,100851.84
2023-03-28T10:55:42.678Z,100847.69
2023-03-28T10:58:20.480Z,100838.19
2023-03-28T11:00:58.180Z,100836.09
2023-03-28T11:03:41.322Z,100833.03
2023-03-28T11:06:17.328Z,100830.38
2023-03-28T11:08:58.094Z,100825.28
2023-03-28T11:11:45.426Z,100827.75
2023-03-28T11:14:25.233Z,100820.94
2023-03-28T11:17:02.634Z,100822.88
2023-03-28T11:19:55.152Z,100819.16
2023-03-28T11:22:33.920Z,100813.00
2023-03-28T11:25:15.258Z,100811.50
2023-03-28T11:27:50.928Z,100802.66
2023-03-28T11:30:23.957Z,100802.75
2023-03-28T11:32:58.355Z,100800.03
2023-03-28T11:35:31.706Z,100802.88
2023-03-28T11:38:04.401Z,100793.69
2023-03-28T11:40:38.097Z,100787.41
2023-03-28T11:43:07.203Z,100785.72
2023-03-28T11:45:50.967Z,100768.88
2023-03-28T11:48:26.123Z,100780.56
2023-03-28T11:51:03.563Z,100773.47
2023-03-28T11:53:37.531Z,100768.88
2023-03-28T11:56:14.504Z,100764.81
2023-03-28T11:58:47.797Z,100766.00
2023-03-28T12:01:20.502Z,100762.44
2023-03-28T12:04:01.340Z,100751.53
2023-03-28T12:06:37.287Z,100755.31
2023-03-28T12:09:13.513Z,100750.06
2023-03-28T12:11:45.586Z,100742.66
2023-03-28T12:14:30.973Z,100737.94
2023-03-28T12:17:02.396Z,100732.34
2023-03-28T12:19:34.860Z,100735.91
2023-03-28T12:22:09.305Z,100726.78
2023-03-28T12:24:43.987Z,100730.28
2023-03-28T12:27:21.931Z,100717.66
2023-03-28T12:29:56.686Z,100714.75
2023-03-28T12:32:37.730Z,100705.31
2023-03-28T12:35:13.405Z,100709.59
2023-03-28T12:37:51.458Z,100715.63
2023-03-28T12:40:27.189Z,100700.03
2023-03-28T12:42:58.939Z,100693.22
2023-03-28T12:45:41.178Z,100694.53
2023-03-28T12:48:16.745Z,100685.56
2023-03-28T12:50:52.081Z,100674.59
2023-03-28T12:53:21.894Z,100685.19
2023-03-28T12:55:51.496Z,100667.19
2023-03-28T12:58:28.365Z,100672.31
2023-03-28T13:01:06.004Z,100666.50
2023-03-28T13:03:52.331Z,100665.56
2023-03-28T13:06:28.995Z,100662.09
2023-03-28T13:09:23.605Z,100654.16
2023-03-28T13:11:59.533Z,100660.47
2023-03-28T13:14:36.433Z,100657.06
2023-03-28T13:17:18.158Z,100647.00
2023-03-28T13:19:51.741Z,100652.38
2023-03-28T13:22:29.280Z,100643.66
2023-03-28T13:25:22.187Z,100639.06
2023-03-28T13:27:51.287Z,100636.94
2023-03-28T13:30:21.182Z,100630.31
2023-03-28T13:32:52.457Z,100630.34
2023-03-28T13:35:45.683Z,100625.94
2023-03-28T13:38:24.941Z,100610.41
2023-03-28T13:40:55.827Z,100611.22
2023-03-28T13:43:26.459Z,100604.72
2023-03-28T13:45:57.848Z,100600.50
2023-03-28T13:48:30.600Z,100603.06
2023-03-28T13:51:05.491Z,100605.28
2023-03-28T13:53:46.290Z,100601.97
2023-03-28T13:56:23.543Z,100608.72
2023-03-28T13:58:53.578Z,100600.06
2023-03-28T14:01:25.724Z,100604.44
2023-03-28T14:03:55.761Z,100587.31
2023-03-28T14:06:26.737Z,100580.78
2023-03-28T14:08:57.644Z,100583.56
2023-03-28T14:11:30.445Z,100582.91
2023-03-28T14:14:09.484Z,100576.03
2023-03-28T14:16:38.242Z,100570.53
2023-03-28T14:19:07.165Z,100574.13
2023-03-28T14:21:36.516Z,100568.78
2023-03-28T14:24:07.788Z,100562.53
2023-03-28T14:26:37.042Z,100558.56
2023-03-28T14:29:08.236Z,100557.03
2023-03-28T14:31:38.343Z,100551.78
2023-03-28T14:34:17.122Z,100539.34
2023-03-28T14:36:59.206Z,100544.75
2023-03-28T14:39:29.306Z,100536.88
2023-03-28T14:41:58.613Z,100534.22
2023-03-28T14:44:27.139Z,100523.38
2023-03-28T14:46:58.456Z,100517.75
2023-03-28T14:49:27.959Z,100514.94
2023-03-28T14:51:59.049Z,100508.97
2023-03-28T14:54:29.652Z,100495.53
2023-03-28T14:56:59.303Z,100508.81
2023-03-28T14:59:36.740Z,100498.03
2023-03-28T15:02:06.790Z,100500.38
2023-03-28T15:04:35.928Z,100498.44
2023-03-28T15:07:09.004Z,100491.78
2023-03-28T15:09:36.942Z,100497.16
2023-03-28T15:12:09.124Z,100488.84
2023-03-28T15:14:41.674Z,100493.84
2023-03-28T15:17:16.987Z,100486.34
2023-03-28T15:19:47.456Z,100475.03
2023-03-28T15:22:22.587Z,100469.34
2023-03-28T15:24:50.970Z,100470.22
2023-03-28T15:27:24.668Z,100465.22
2023-03-28T15:29:52.645Z,100475.03
2023-03-28T15:32:20.909Z,100471.13
2023-03-28T15:34:55.825Z,100470.72
2023-03-28T15:37:27.090Z,100461.69
2023-03-28T15:40:12.247Z,100450.91
2023-03-28T15:42:40.562Z,100458.34
2023-03-28T15:45:31.152Z,100448.91
2023-03-28T15:47:58.946Z,100451.13
2023-03-28T15:50:33.120Z,100445.69
2023-03-28T15:53:05.991Z,100441.13
2023-03-28T15:55:34.848Z,100455.56
2023-03-28T15:58:04.773Z,100458.47
2023-03-28T16:00:38.995Z,100445.63
2023-03-28T16:03:45.130Z,100444.16
2023-03-28T16:06:31.775Z,100430.25
2023-03-28T16:09:16.139Z,100421.84
2023-03-28T16:11:44.791Z,100419.97
2023-03-28T16:14:16.380Z,100416.66
2023-03-28T16:16:44.036Z,100408.88
2023-03-28T16:19:18.291Z,100412.41
2023-03-28T16:21:46.576Z,100404.66
2023-03-28T16:24:15.832Z,100402.69
2023-03-28T16:26:43.778Z,100406.03
2023-03-28T16:29:12.207Z,100407.53
2023-03-28T16:31:40.999Z,100402.72
2023-03-28T16:34:10.062Z,100398.03
2023-03-28T16:36:38.558Z,100389.00
2023-03-28T16:39:06.539Z,100384.69
2023-03-28T16:41:35.821Z,100381.16
2023-03-28T16:44:03.577Z,100387.50
2023-03-28T16:46:31.564Z,100386.09
2023-03-28T16:48:59.295Z,100383.47
2023-03-28T16:51:27.336Z,100370.41
2023-03-28T16:53:55.022Z,100372.16
2023-03-28T16:56:25.686Z,100369.78
2023-03-28T16:58:54.853Z,100372.59
2023-03-28T17:01:23.269Z,100369.97
2023-03-28T17:03:52.642Z,100369.91
2023-03-28T17:06:20.388Z,100366.09
2023-03-28T17:08:48.117Z,100357.50
2023-03-28T17:11:16.753Z,100355.81
2023-03-28T17:13:44.434Z,100341.59
2023-03-28T17:16:13.601Z,100354.25
2023-03-28T17:18:41.261Z,100350.03
2023-03-28T17:21:11.143Z,100344.25
2023-03-28T17:23:40.423Z,100333.94
2023-03-28T17:26:09.274Z,100328.19
2023-03-28T17:28:39.571Z,100329.53
2023-03-28T17:31:08.623Z,100334.66
2023-03-28T17:33:37.976Z,100327.22
2023-03-28T17:36:21.800Z,100321.09
2023-03-28T17:38:51.022Z,100315.28
2023-03-28T17:41:19.306Z,100313.16
2023-03-28T17:43:47.364Z,100309.53
2023-03-28T17:46:15.096Z,100315.78
2023-03-28T17:48:44.458Z,100306.16
2023-03-28T17:51:13.138Z,100309.81
2023-03-28T17:53:41.641Z,100302.56
2023-03-28T17:56:11.041Z,100302.09
2023-03-28T17:58:39.110Z,100294.13
2023-03-28T18:01:10.476Z,100306.19
2023-03-28T18:03:39.068Z,100295.38
2023-03-28T18:06:09.741Z,100298.41
2023-03-28T18:08:37.782Z,100292.53
2023-03-28T18:11:07.788Z,100293.41
2023-03-28T18:13:37.086Z,100299.25
2023-03-28T18:16:05.839Z,100307.84
2023-03-28T18:18:34.228Z,100308.31
2023-03-28T18:21:02.110Z,100308.72
2023-03-28T18:23:31.885Z,100309.03
2023-03-28T18:26:00.130Z,100310.22
2023-03-28T18:28:28.332Z,100309.78
2023-03-28T18:30:57.309Z,100308.78
2023-03-28T18:33:25.343Z,100322.53
2023-03-28T18:35:53.320Z,100314.97
2023-03-28T18:38:21.088Z,100323.81
2023-03-28T18:40:53.307Z,100328.19
2023-03-28T18:43:21.322Z,100327.06
2023-03-28T18:45:54.631Z,100330.94
2023-03-28T18:48:22.840Z,100330.44
2023-03-28T18:50:51.017Z,100326.41
2023-03-28T18:53:18.783Z,100331.69
2023-03-28T18:55:46.721Z,100331.72
2023-03-28T18:58:16.282Z,100326.56
2023-03-28T19:00:44.142Z,100319.63
2023-03-28T19:03:17.670Z,100304.34
2023-03-28T19:05:45.859Z,100309.44
2023-03-28T19:08:13.664Z,100324.63
2023-03-28T19:10:46.766Z,100305.75
2023-03-28T19:13:16.085Z,100304.50
2023-03-28T19:15:44.096Z,100298.13
2023-03-28T19:18:12.047Z,100301.72
2023-03-28T19:20:40.303Z,100304.22
2023-03-28T19:23:08.702Z,100283.84
2023-03-28T19:25:36.721Z,100308.91
2023-03-28T19:28:04.644Z,100326.22
2023-03-28T19:30:33.800Z,100325.22
2023-03-28T19:33:01.639Z,100329.66
2023-03-28T19:35:29.294Z,100319.25
2023-03-28T19:37:58.108Z,100323.56
2023-03-28T19:40:26.476Z,100326.63
2023-03-28T19:42:54.246Z,100317.88
2023-03-28T19:45:21.914Z,100325.94
2023-03-28T19:47:51.748Z,100316.31
2023-03-28T19:50:19.954Z,100320.78
2023-03-28T19:52:47.759Z,100331.41
2023-03-28T19:55:15.922Z,100334.19
2023-03-28T19:57:43.705Z,100340.97
2023-03-28T20:00:12.434Z,100342.28
2023-03-28T20:02:40.388Z,100342.16
2023-03-28T20:05:10.496Z,100342.34
2023-03-28T20:07:38.223Z,100332.38
2023-03-28T20:10:07.334Z,100318.63
2023-03-28T20:12:39.544Z,100273.94
2023-03-28T20:15:08.762Z,100233.22
2023-03-28T20:17:36.800Z,100209.06
2023-03-28T20:20:06.190Z,100212.81
2023-03-28T20:22:36.368Z,100208.00
2023-03-28T20:25:04.374Z,100223.63
2023-03-28T20:27:32.958Z,100230.03
2023-03-28T20:30:00.826Z,100251.50
2023-03-28T20:32:28.653Z,100265.66
2023-03-28T20:34:56.406Z,100263.97
2023-03-28T20:37:24.407Z,100269.78
2023-03-28T20:39:53.437Z,100261.97
2023-03-28T20:42:21.340Z,100250.66
2023-03-28T20:44:49.047Z,100256.63
2023-03-28T20:47:22.228Z,100247.91
2023-03-28T20:49:56.276Z,100256.63
2023-03-28T20:52:24.988Z,100259.47
2023-03-28T20:54:54.363Z,100260.53
2023-03-28T20:57:22.136Z,100267.75
2023-03-28T20:59:49.903Z,100257.31
2023-03-28T21:02:17.710Z,100269.22
2023-03-28T21:04:45.461Z,100278.44
2023-03-28T21:07:14.025Z,100276.75
2023-03-28T21:09:41.904Z,100268.19
2023-03-28T21:12:11.191Z,100283.53
2023-03-28T21:14:38.882Z,100260.47
2023-03-28T21:17:08.554Z,100252.88
2023-03-28T21:19:36.608Z,100238.25
2023-03-28T21:22:04.328Z,100215.19
2023-03-28T21:24:32.093Z,100204.31
2023-03-28T21:27:00.103Z,100186.19
2023-03-28T21:29:29.156Z,100177.63
2023-03-28T21:31:56.945Z,100182.72
2023-03-28T21:34:30.528Z,100189.81
2023-03-28T21:36:58.500Z,100202.16
2023-03-28T21:39:27.216Z,100200.03
2023-03-28T21:41:55.142Z,100214.84
2023-03-28T21:44:23.621Z,100229.75
2023-03-28T21:46:52.715Z,100230.25
2023-03-28T21:49:20.415Z,100241.09
2023-03-28T21:51:50.045Z,100248.38
2023-03-28T21:54:17.851Z,100256.00
2023-03-28T21:56:45.797Z,100264.13
2023-03-28T21:59:13.544Z,100276.22
2023-03-28T22:01:41.233Z,100260.47
2023-03-28T22:04:10.434Z,100270.41
2023-03-28T22:06:38.310Z,100262.28
2023-03-28T22:09:06.061Z,100259.25
2023-03-28T22:11:35.053Z,100258.97
2023-03-28T22:14:04.585Z,100249.56
2023-03-28T22:16:34.620Z,100255.50
2023-03-28T22:19:02.866Z,100256.34
2023-03-28T22:21:31.974Z,100242.88
2023-03-28T22:24:00.563Z,100234.28
2023-03-28T22:26:28.254Z,100238.69
2023-03-28T22:28:57.660Z,100237.88
2023-03-28T22:31:25.978Z,100239.53
2023-03-28T22:33:54.036Z,100241.47
2023-03-28T22:36:21.832Z,100238.84
2023-03-28T22:38:51.872Z,100232.34
2023-03-28T22:41:19.560Z,100226.09
2023-03-28T22:43:47.866Z,100225.00
2023-03-28T22:46:16.358Z,100206.03
2023-03-28T22:48:44.395Z,100199.09
2023-03-28T22:51:12.562Z,100195.38
2023-03-28T22:53:40.918Z,100172.31
2023-03-28T22:56:10.439Z,100168.03
2023-03-28T22:58:38.132Z,100165.56
2023-03-28T23:01:06.538Z,100158.63
2023-03-28T23:03:34.194Z,100165.69
2023-03-28T23:06:06.311Z,100156.25
2023-03-28T23:08:34.155Z,100153.63
2023-03-28T23:11:02.112Z,100150.03
2023-03-28T23:13:31.440Z,100159.31
2023-03-28T23:15:59.146Z,100153.66
2023-03-28T23:18:27.101Z,100149.50
2023-03-28T23:20:54.752Z,100137.28
2023-03-28T23:23:22.343Z,100128.13
2023-03-28T23:25:50.043Z,100122.47
2023-03-28T23:28:20.167Z,100123.41
2023-03-28T23:30:49.384Z,100121.47
2023-03-28T23:33:18.411Z,100123.97
2023-03-28T23:35:48.122Z,100123.97
2023-03-28T23:38:17.428Z,100112.88
2023-03-28T23:40:46.278Z,100105.63
2023-03-28T23:43:14.453Z,100096.41
2023-03-28T23:45:42.400Z,100089.63
2023-03-28T23:48:11.572Z,100096.13
2023-03-28T23:50:39.404Z,100089.75
2023-03-28T23:53:07.076Z,100087.66
2023-03-28T23:55:35.581Z,100086.69
2023-03-28T23:58:04.565Z,100089.59
